Elmwood Park, New Jersey
Current Conditions -  °F | °C
As of 10:14 AM on Wednesday 26 Nov 2014 (Local Time) from KTEB Reporting Station
Light Snow Light Snow  
Wind Chill: 30°   Ceiling: 500
Heat Index: 34°   Visibility: 1.5mi
Dew Point: 30°   Wind: 5mph
Humidity: 87%   Direction: 360°N
Pressure: 30.13"   Gusts: NA
Location:  40.9°N, 74.12°W
Report Text: KTEB 261514Z 36004KT 1 1/2SM -SN OVC005 01/M01 A3013 RMK AO2 RAE12PLE1454SNB1454 P0003 $
Loading
Personal Weather Stations






























Interactive Weather Map New forecast layout! Learn more

10-Day Weather Forecast

Advertisements
Track Severe Weather on mobile